createdAt,value
2022-12-05T00:01:30.306Z,13.97
2022-12-05T00:03:59.767Z,13.94
2022-12-05T00:06:28.334Z,13.98
2022-12-05T00:08:55.686Z,13.94
2022-12-05T00:11:25.185Z,13.87
2022-12-05T00:13:54.636Z,13.78
2022-12-05T00:16:23.246Z,13.71
2022-12-05T00:18:50.319Z,13.66
2022-12-05T00:21:22.362Z,13.61
2022-12-05T00:23:52.621Z,13.52
2022-12-05T00:26:20.887Z,13.50
2022-12-05T00:28:51.130Z,13.41
2022-12-05T00:31:20.944Z,13.41
2022-12-05T00:33:48.998Z,13.34
2022-12-05T00:36:17.701Z,13.38
2022-12-05T00:38:45.691Z,13.35
2022-12-05T00:41:15.815Z,13.34
2022-12-05T00:43:43.436Z,13.37
2022-12-05T00:46:18.225Z,13.21
2022-12-05T00:48:45.372Z,13.26
2022-12-05T00:51:15.233Z,13.30
2022-12-05T00:53:42.689Z,13.30
2022-12-05T00:56:11.523Z,13.29
2022-12-05T00:58:39.138Z,13.29
2022-12-05T01:01:11.186Z,13.28
2022-12-05T01:03:38.601Z,13.21
2022-12-05T01:06:06.735Z,13.30
2022-12-05T01:08:34.062Z,13.28
2022-12-05T01:11:01.257Z,13.27
2022-12-05T01:13:29.187Z,13.20
2022-12-05T01:15:56.253Z,13.24
2022-12-05T01:18:23.937Z,13.17
2022-12-05T01:20:51.262Z,13.12
2022-12-05T01:23:18.799Z,13.03
2022-12-05T01:25:47.126Z,13.06
2022-12-05T01:28:14.948Z,13.04
2022-12-05T01:30:43.490Z,13.06
2022-12-05T01:33:11.340Z,13.08
2022-12-05T01:35:39.374Z,13.07
2022-12-05T01:38:07.142Z,13.08
2022-12-05T01:40:36.391Z,13.10
2022-12-05T01:43:03.812Z,13.02
2022-12-05T01:45:39.024Z,12.97
2022-12-05T01:48:08.846Z,12.89
2022-12-05T01:50:36.435Z,12.89
2022-12-05T01:53:04.385Z,12.90
2022-12-05T01:55:31.556Z,12.84
2022-12-05T01:57:59.186Z,12.79
2022-12-05T02:00:26.527Z,12.74
2022-12-05T02:02:56.616Z,12.73
2022-12-05T02:05:27.395Z,12.70
2022-12-05T02:07:55.000Z,12.69
2022-12-05T02:10:22.215Z,12.60
2022-12-05T02:12:50.366Z,12.66
2022-12-05T02:15:23.579Z,12.62
2022-12-05T02:17:57.016Z,12.56
2022-12-05T02:20:45.839Z,12.54
2022-12-05T02:23:34.361Z,12.44
2022-12-05T02:26:01.255Z,12.35
2022-12-05T02:28:40.590Z,12.43
2022-12-05T02:31:10.417Z,12.37
2022-12-05T02:33:44.180Z,12.34
2022-12-05T02:36:15.444Z,12.29
2022-12-05T02:38:45.481Z,12.33
2022-12-05T02:41:24.329Z,12.27
2022-12-05T02:43:51.416Z,12.28
2022-12-05T02:46:21.300Z,12.16
2022-12-05T02:48:49.730Z,12.15
2022-12-05T02:51:19.952Z,12.16
2022-12-05T02:53:48.215Z,12.12
2022-12-05T02:56:16.857Z,12.03
2022-12-05T02:58:48.886Z,12.13
2022-12-05T03:01:19.400Z,12.07
2022-12-05T03:03:49.693Z,12.05
2022-12-05T03:06:23.868Z,12.08
2022-12-05T03:09:06.218Z,12.02
2022-12-05T03:11:44.757Z,12.04
2022-12-05T03:14:22.107Z,12.09
2022-12-05T03:16:57.827Z,12.05
2022-12-05T03:19:35.233Z,12.09
2022-12-05T03:22:09.375Z,12.11
2022-12-05T03:24:38.480Z,12.15
2022-12-05T03:27:09.351Z,12.15
2022-12-05T03:29:41.407Z,12.15
2022-12-05T03:32:27.492Z,12.18
2022-12-05T03:35:01.035Z,12.16
2022-12-05T03:37:32.212Z,12.17
2022-12-05T03:40:10.152Z,12.17
2022-12-05T03:42:44.182Z,12.15
2022-12-05T03:45:17.785Z,12.18
2022-12-05T03:48:02.135Z,12.17
2022-12-05T03:50:31.617Z,12.24
2022-12-05T03:53:20.100Z,12.15
2022-12-05T03:56:09.132Z,12.11
2022-12-05T03:59:00.559Z,12.17
2022-12-05T04:01:35.815Z,12.11
2022-12-05T04:04:13.543Z,11.98
2022-12-05T04:06:51.028Z,12.00
2022-12-05T04:09:22.562Z,12.09
2022-12-05T04:12:06.819Z,12.07
2022-12-05T04:14:45.870Z,12.12
2022-12-05T04:17:32.780Z,12.04
2022-12-05T04:20:22.726Z,12.04
2022-12-05T04:22:51.811Z,12.15
2022-12-05T04:25:35.536Z,12.18
2022-12-05T04:28:22.226Z,12.10
2022-12-05T04:30:56.751Z,12.13
2022-12-05T04:33:33.559Z,12.12
2022-12-05T04:36:14.849Z,12.16
2022-12-05T04:39:05.584Z,12.12
2022-12-05T04:41:35.453Z,12.13
2022-12-05T04:44:10.736Z,12.17
2022-12-05T04:46:41.827Z,12.17
2022-12-05T04:49:15.485Z,12.12
2022-12-05T04:51:46.492Z,12.15
2022-12-05T04:54:20.619Z,12.15
2022-12-05T04:56:55.638Z,12.10
2022-12-05T04:59:28.535Z,12.06
2022-12-05T05:01:59.813Z,12.00
2022-12-05T05:04:37.580Z,11.95
2022-12-05T05:07:08.123Z,11.81
2022-12-05T05:09:37.622Z,11.80
2022-12-05T05:12:18.591Z,11.84
2022-12-05T05:14:47.915Z,11.76
2022-12-05T05:17:21.655Z,11.71
2022-12-05T05:19:49.700Z,11.58
2022-12-05T05:22:18.338Z,11.64
2022-12-05T05:24:46.595Z,11.54
2022-12-05T05:27:17.325Z,11.47
2022-12-05T05:29:45.790Z,11.41
2022-12-05T05:32:16.199Z,11.38
2022-12-05T05:34:44.327Z,11.41
2022-12-05T05:37:12.242Z,11.40
2022-12-05T05:39:40.762Z,11.40
2022-12-05T05:42:12.350Z,11.42
2022-12-05T05:44:44.626Z,11.39
2022-12-05T05:47:15.988Z,11.39
2022-12-05T05:49:43.641Z,11.44
2022-12-05T05:52:11.724Z,11.46
2022-12-05T05:54:42.652Z,11.46
2022-12-05T05:57:14.969Z,11.44
2022-12-05T05:59:45.368Z,11.39
2022-12-05T06:02:18.892Z,11.45
2022-12-05T06:04:50.415Z,11.39
2022-12-05T06:07:18.818Z,11.37
2022-12-05T06:09:50.899Z,11.28
2022-12-05T06:12:24.303Z,11.38
2022-12-05T06:14:52.619Z,11.31
2022-12-05T06:17:22.800Z,11.37
2022-12-05T06:19:52.112Z,11.34
2022-12-05T06:22:21.025Z,11.29
2022-12-05T06:24:53.283Z,11.35
2022-12-05T06:27:23.893Z,11.32
2022-12-05T06:29:57.327Z,11.39
2022-12-05T06:32:26.386Z,11.37
2022-12-05T06:34:55.290Z,11.44
2022-12-05T06:37:23.654Z,11.45
2022-12-05T06:39:52.143Z,11.48
2022-12-05T06:42:24.292Z,11.49
2022-12-05T06:45:00.648Z,11.50
2022-12-05T06:47:29.397Z,11.50
2022-12-05T06:49:57.074Z,11.63
2022-12-05T06:52:24.726Z,11.64
2022-12-05T06:54:52.844Z,11.64
2022-12-05T06:57:20.443Z,11.77
2022-12-05T06:59:47.919Z,11.76
2022-12-05T07:02:15.299Z,11.77
2022-12-05T07:04:43.894Z,11.74
2022-12-05T07:07:10.939Z,11.69
2022-12-05T07:09:48.511Z,11.72
2022-12-05T07:12:17.109Z,11.78
2022-12-05T07:14:49.078Z,11.80
2022-12-05T07:17:18.347Z,11.83
2022-12-05T07:19:47.063Z,11.83
2022-12-05T07:22:16.135Z,11.83
2022-12-05T07:24:44.131Z,11.83
2022-12-05T07:27:11.201Z,11.86
2022-12-05T07:29:38.092Z,11.88
2022-12-05T07:32:05.229Z,11.88
2022-12-05T07:34:32.258Z,11.90
2022-12-05T07:37:00.099Z,11.86
2022-12-05T07:39:27.169Z,11.94
2022-12-05T07:41:54.028Z,11.97
2022-12-05T07:44:21.101Z,11.95
2022-12-05T07:46:48.152Z,11.96
2022-12-05T07:49:16.279Z,12.01
2022-12-05T07:51:43.238Z,12.03
2022-12-05T07:54:10.333Z,12.01
2022-12-05T07:56:37.271Z,12.08
2022-12-05T07:59:04.231Z,12.09
2022-12-05T08:01:31.295Z,12.09
2022-12-05T08:03:59.279Z,12.11
2022-12-05T08:06:27.394Z,11.95
2022-12-05T08:08:54.560Z,12.00
2022-12-05T08:11:26.298Z,12.11
2022-12-05T08:13:54.009Z,12.05
2022-12-05T08:16:24.843Z,12.13
2022-12-05T08:18:59.659Z,12.09
2022-12-05T08:21:26.704Z,12.17
2022-12-05T08:23:56.065Z,12.16
2022-12-05T08:26:30.630Z,12.10
2022-12-05T08:28:59.123Z,12.04
2022-12-05T08:31:27.320Z,12.20
2022-12-05T08:33:59.081Z,12.25
2022-12-05T08:36:27.857Z,11.99
2022-12-05T08:39:01.913Z,12.08
2022-12-05T08:41:30.363Z,12.19
2022-12-05T08:43:58.555Z,12.34
2022-12-05T08:46:26.258Z,12.54
2022-12-05T08:48:53.286Z,12.77
2022-12-05T08:51:20.240Z,12.98
2022-12-05T08:53:47.627Z,13.33
2022-12-05T08:56:14.843Z,13.59
2022-12-05T08:58:41.937Z,13.92
2022-12-05T09:01:11.090Z,14.25
2022-12-05T09:03:43.319Z,14.56
2022-12-05T09:06:14.832Z,14.90
2022-12-05T09:08:42.617Z,15.21
2022-12-05T09:11:12.014Z,15.43
2022-12-05T09:13:40.926Z,15.78
2022-12-05T09:16:08.342Z,16.18
2022-12-05T09:18:38.342Z,16.41
2022-12-05T09:21:09.503Z,16.73
2022-12-05T09:23:37.964Z,16.93
2022-12-05T09:26:06.690Z,17.23
2022-12-05T09:28:34.440Z,17.41
2022-12-05T09:31:03.287Z,17.76
2022-12-05T09:33:31.665Z,18.08
2022-12-05T09:36:15.617Z,18.44
2022-12-05T09:38:43.219Z,18.53
2022-12-05T09:41:16.613Z,18.82
2022-12-05T09:43:43.746Z,19.05
2022-12-05T09:46:21.012Z,19.25
2022-12-05T09:48:49.399Z,19.33
2022-12-05T09:51:17.258Z,19.61
2022-12-05T09:53:45.352Z,19.84
2022-12-05T09:56:18.419Z,20.10
2022-12-05T09:58:47.673Z,20.30
2022-12-05T10:01:26.042Z,20.52
2022-12-05T10:03:56.737Z,20.81
2022-12-05T10:06:30.949Z,20.98
2022-12-05T10:09:01.821Z,21.28
2022-12-05T10:11:34.942Z,21.42
2022-12-05T10:14:10.844Z,21.81
2022-12-05T10:16:43.912Z,21.92
2022-12-05T10:19:13.007Z,22.09
2022-12-05T10:21:44.517Z,22.31
2022-12-05T10:24:17.755Z,22.58
2022-12-05T10:26:46.801Z,22.77
2022-12-05T10:29:24.019Z,23.07
2022-12-05T10:31:55.048Z,23.30
2022-12-05T10:34:29.135Z,23.64
2022-12-05T10:37:01.668Z,23.90
2022-12-05T10:39:28.842Z,24.14
2022-12-05T10:41:59.883Z,24.42
2022-12-05T10:44:26.896Z,24.79
2022-12-05T10:46:54.159Z,24.87
2022-12-05T10:49:22.526Z,25.15
2022-12-05T10:51:49.738Z,25.46
2022-12-05T10:54:29.932Z,25.71
2022-12-05T10:56:57.453Z,26.06
2022-12-05T10:59:26.526Z,26.41
2022-12-05T11:01:58.126Z,26.85
2022-12-05T11:04:27.052Z,27.17
2022-12-05T11:07:17.440Z,27.50
2022-12-05T11:12:57.598Z,28.32
2022-12-05T11:15:34.312Z,28.80
2022-12-05T11:18:22.350Z,29.22
2022-12-05T11:20:58.197Z,29.49
2022-12-05T11:23:37.498Z,29.94
2022-12-05T11:26:24.011Z,29.94
2022-12-05T11:28:51.358Z,30.13
2022-12-05T11:31:26.007Z,30.36
2022-12-05T11:34:04.677Z,30.48
2022-12-05T11:36:40.663Z,30.58
2022-12-05T11:39:09.525Z,30.92
2022-12-05T11:41:55.550Z,31.10
2022-12-05T11:44:44.140Z,31.32
2022-12-05T11:47:20.357Z,31.21
2022-12-05T11:49:50.512Z,31.39
2022-12-05T11:52:20.398Z,31.52
2022-12-05T11:55:08.123Z,31.28
2022-12-05T11:57:38.266Z,31.80
2022-12-05T12:00:14.511Z,31.94
2022-12-05T12:02:59.788Z,32.15
2022-12-05T12:05:30.899Z,32.15
2022-12-05T12:08:05.849Z,32.16
2022-12-05T12:10:57.256Z,32.25
2022-12-05T12:13:44.871Z,32.60
2022-12-05T12:16:12.832Z,32.61
2022-12-05T12:19:06.249Z,32.71
2022-12-05T12:21:46.514Z,33.08
2022-12-05T12:24:16.656Z,33.06
2022-12-05T12:26:56.176Z,32.39
2022-12-05T12:29:29.975Z,32.71
2022-12-05T12:32:09.680Z,32.93
2022-12-05T12:34:53.181Z,32.80
2022-12-05T12:37:44.593Z,32.32
2022-12-05T12:40:33.544Z,31.99
2022-12-05T12:43:52.213Z,31.83
2022-12-05T12:46:15.552Z,32.09
2022-12-05T12:48:49.071Z,31.85
2022-12-05T12:51:20.375Z,32.26
2022-12-05T12:54:02.761Z,32.02
2022-12-05T12:56:39.006Z,31.95
2022-12-05T12:59:09.934Z,31.75
2022-12-05T13:01:37.132Z,31.63
2022-12-05T13:04:26.519Z,31.20
2022-12-05T13:07:00.545Z,30.52
2022-12-05T13:09:54.288Z,30.72
2022-12-05T13:12:30.698Z,30.60
2022-12-05T13:15:01.336Z,30.50
2022-12-05T13:17:31.266Z,30.69
2022-12-05T13:20:10.880Z,30.90
2022-12-05T13:22:42.443Z,31.14
2022-12-05T13:25:14.107Z,31.10
2022-12-05T13:27:43.321Z,30.79
2022-12-05T13:30:18.301Z,30.47
2022-12-05T13:32:45.404Z,30.79
2022-12-05T13:35:48.929Z,30.85
2022-12-05T13:38:43.556Z,30.88
2022-12-05T13:41:31.804Z,30.82
2022-12-05T13:44:07.180Z,30.75
2022-12-05T13:46:39.108Z,30.41
2022-12-05T13:49:17.322Z,30.27
2022-12-05T13:51:45.868Z,30.17
2022-12-05T13:54:18.392Z,29.49
2022-12-05T13:56:48.290Z,29.83
2022-12-05T13:59:35.404Z,29.58
2022-12-05T14:02:25.364Z,29.45
2022-12-05T14:04:54.002Z,29.18
2022-12-05T14:07:38.176Z,29.07
2022-12-05T14:10:05.636Z,28.85
2022-12-05T14:12:49.163Z,28.75
2022-12-05T14:15:26.818Z,28.63
2022-12-05T14:18:06.314Z,28.68
2022-12-05T14:20:49.841Z,28.69
2022-12-05T14:23:25.341Z,28.43
2022-12-05T14:26:05.680Z,27.97
2022-12-05T14:28:47.307Z,28.02
2022-12-05T14:31:29.584Z,27.86
2022-12-05T14:34:14.182Z,27.78
2022-12-05T14:36:52.254Z,27.57
2022-12-05T14:39:40.203Z,27.13
2022-12-05T14:42:20.442Z,27.31
2022-12-05T14:44:49.116Z,26.83
2022-12-05T14:47:24.180Z,26.76
2022-12-05T14:49:53.646Z,26.13
2022-12-05T14:52:27.615Z,25.87
2022-12-05T14:54:58.727Z,25.08
2022-12-05T14:57:25.930Z,24.90
2022-12-05T14:59:56.330Z,24.40
2022-12-05T15:02:27.359Z,23.88
2022-12-05T15:04:57.702Z,23.81
2022-12-05T15:07:34.768Z,23.70
2022-12-05T15:10:05.335Z,23.19
2022-12-05T15:12:38.436Z,23.10
2022-12-05T15:15:21.738Z,23.10
2022-12-05T15:18:00.471Z,22.94
2022-12-05T15:20:40.312Z,22.76
2022-12-05T15:23:40.264Z,22.65
2022-12-05T15:26:46.282Z,22.77
2022-12-05T15:31:57.179Z,22.27
2022-12-05T15:34:26.755Z,22.35
2022-12-05T15:37:04.937Z,22.11
2022-12-05T15:39:50.680Z,22.10
2022-12-05T15:42:33.177Z,22.03
2022-12-05T15:45:15.370Z,21.93
2022-12-05T15:48:05.288Z,21.70
2022-12-05T15:53:48.067Z,21.49
2022-12-05T15:56:25.028Z,21.14
2022-12-05T15:58:55.162Z,21.20
2022-12-05T16:01:29.763Z,21.27
2022-12-05T16:04:00.325Z,21.23
2022-12-05T16:06:39.633Z,21.23
2022-12-05T16:09:15.302Z,21.15
2022-12-05T16:11:51.377Z,20.96
2022-12-05T16:14:37.199Z,20.94
2022-12-05T16:17:11.817Z,20.99
2022-12-05T16:19:39.529Z,20.63
2022-12-05T16:22:12.865Z,20.49
2022-12-05T16:24:41.190Z,20.60
2022-12-05T16:27:18.801Z,20.43
2022-12-05T16:29:46.086Z,20.08
2022-12-05T16:32:24.709Z,20.48
2022-12-05T16:34:51.833Z,20.41
2022-12-05T16:37:36.823Z,20.35
2022-12-05T16:40:09.686Z,20.33
2022-12-05T16:45:53.654Z,20.20
2022-12-05T16:48:28.493Z,20.12
2022-12-05T16:51:14.148Z,20.11
2022-12-05T16:53:45.216Z,20.10
2022-12-05T16:56:24.180Z,19.91
2022-12-05T16:58:51.863Z,19.97
2022-12-05T17:01:20.703Z,19.99
2022-12-05T17:03:48.426Z,20.02
2022-12-05T17:06:16.444Z,20.02
2022-12-05T17:08:44.487Z,19.90
2022-12-05T17:11:19.523Z,19.95
2022-12-05T17:13:50.091Z,19.88
2022-12-05T17:16:18.504Z,19.89
2022-12-05T17:18:45.867Z,19.99
2022-12-05T17:21:17.584Z,19.83
2022-12-05T17:23:54.151Z,19.84
2022-12-05T17:26:22.018Z,19.70
2022-12-05T17:28:49.625Z,19.78
2022-12-05T17:31:18.996Z,19.81
2022-12-05T17:33:46.388Z,19.78
2022-12-05T17:36:13.504Z,19.70
2022-12-05T17:38:40.676Z,19.69
2022-12-05T17:41:07.720Z,19.66
2022-12-05T17:43:34.907Z,19.63
2022-12-05T17:46:02.373Z,19.64
2022-12-05T17:48:29.652Z,19.61
2022-12-05T17:51:03.607Z,19.62
2022-12-05T17:53:36.585Z,19.48
2022-12-05T17:56:03.740Z,19.47
2022-12-05T17:58:33.297Z,19.41
2022-12-05T18:01:00.533Z,19.39
2022-12-05T18:03:27.776Z,19.39
2022-12-05T18:06:04.055Z,19.43
2022-12-05T18:08:31.387Z,19.42
2022-12-05T18:10:58.565Z,19.41
2022-12-05T18:13:25.981Z,19.40
2022-12-05T18:16:00.384Z,19.29
2022-12-05T18:18:31.967Z,19.31
2022-12-05T18:21:10.264Z,19.27
2022-12-05T18:23:44.041Z,19.20
2022-12-05T18:26:14.476Z,19.08
2022-12-05T18:28:50.709Z,19.10
2022-12-05T18:31:29.410Z,19.12
2022-12-05T18:33:57.486Z,19.06
2022-12-05T18:36:24.566Z,19.09
2022-12-05T18:41:36.826Z,19.11
2022-12-05T18:44:03.905Z,19.11
2022-12-05T18:46:31.588Z,19.12
2022-12-05T18:49:03.161Z,19.08
2022-12-05T18:51:31.129Z,18.94
2022-12-05T18:53:58.147Z,18.96
2022-12-05T18:56:27.315Z,18.91
2022-12-05T18:59:08.837Z,18.93
2022-12-05T19:01:41.732Z,18.93
2022-12-05T19:04:12.913Z,18.88
2022-12-05T19:06:41.663Z,18.82
2022-12-05T19:09:13.384Z,18.75
2022-12-05T19:11:45.655Z,18.75
2022-12-05T19:14:19.398Z,18.72
2022-12-05T19:16:49.075Z,18.73
2022-12-05T19:19:18.764Z,18.73
2022-12-05T19:21:47.293Z,18.68
2022-12-05T19:24:15.822Z,18.64
2022-12-05T19:26:44.125Z,18.60
2022-12-05T19:29:12.464Z,18.53
2022-12-05T19:31:39.807Z,18.57
2022-12-05T19:34:07.837Z,18.46
2022-12-05T19:36:37.736Z,18.47
2022-12-05T19:39:09.562Z,18.49
2022-12-05T19:41:37.154Z,18.43
2022-12-05T19:44:04.713Z,18.45
2022-12-05T19:46:33.401Z,18.37
2022-12-05T19:49:06.387Z,18.32
2022-12-05T19:51:35.106Z,18.26
2022-12-05T19:54:06.125Z,18.23
2022-12-05T19:56:42.273Z,18.22
2022-12-05T19:59:13.137Z,18.17
2022-12-05T20:01:44.066Z,18.21
2022-12-05T20:04:12.776Z,18.16
2022-12-05T20:06:48.083Z,18.14
2022-12-05T20:09:17.913Z,18.10
2022-12-05T20:11:52.448Z,18.06
2022-12-05T20:14:22.184Z,18.04
2022-12-05T20:16:49.262Z,17.98
2022-12-05T20:19:16.604Z,17.97
2022-12-05T20:21:44.736Z,17.88
2022-12-05T20:24:11.824Z,17.87
2022-12-05T20:26:42.912Z,17.85
2022-12-05T20:29:10.487Z,17.74
2022-12-05T20:31:38.842Z,17.64
2022-12-05T20:34:06.572Z,17.64
2022-12-05T20:36:35.287Z,17.68
2022-12-05T20:39:04.247Z,17.68
2022-12-05T20:41:31.304Z,17.71
2022-12-05T20:43:59.739Z,17.62
2022-12-05T20:46:27.981Z,17.66
2022-12-05T20:48:56.736Z,17.65
2022-12-05T20:51:28.256Z,17.64
2022-12-05T20:54:05.890Z,17.61
2022-12-05T20:56:48.462Z,17.62
2022-12-05T20:59:16.206Z,17.54
2022-12-05T21:01:55.806Z,17.52
2022-12-05T21:04:23.126Z,17.49
2022-12-05T21:06:51.715Z,17.37
2022-12-05T21:09:26.349Z,17.35
2022-12-05T21:11:56.871Z,17.34
2022-12-05T21:14:24.398Z,17.33
2022-12-05T21:16:53.340Z,17.32
2022-12-05T21:19:21.524Z,17.27
2022-12-05T21:21:53.929Z,17.23
2022-12-05T21:24:21.969Z,17.21
2022-12-05T21:26:51.319Z,17.18
2022-12-05T21:29:22.666Z,17.13
2022-12-05T21:31:57.655Z,17.08
2022-12-05T21:34:26.126Z,17.12
2022-12-05T21:36:53.205Z,17.10
2022-12-05T21:39:29.764Z,17.13
2022-12-05T21:41:56.895Z,17.16
2022-12-05T21:44:24.110Z,17.14
2022-12-05T21:46:51.144Z,17.08
2022-12-05T21:49:18.386Z,17.14
2022-12-05T21:51:45.457Z,17.05
2022-12-05T21:54:12.311Z,17.09
2022-12-05T21:56:40.832Z,17.05
2022-12-05T21:59:07.886Z,16.98
2022-12-05T22:01:37.822Z,16.98
2022-12-05T22:04:05.013Z,16.93
2022-12-05T22:06:36.447Z,16.93
2022-12-05T22:09:04.015Z,16.91
2022-12-05T22:11:35.248Z,16.90
2022-12-05T22:14:02.396Z,16.95
2022-12-05T22:16:33.104Z,16.83
2022-12-05T22:19:02.019Z,16.87
2022-12-05T22:21:30.380Z,16.77
2022-12-05T22:24:00.205Z,16.76
2022-12-05T22:26:27.722Z,16.79
2022-12-05T22:28:56.956Z,16.74
2022-12-05T22:31:26.406Z,16.68
2022-12-05T22:33:55.072Z,16.67
2022-12-05T22:36:23.469Z,16.70
2022-12-05T22:38:50.626Z,16.70
2022-12-05T22:41:19.209Z,16.66
2022-12-05T22:43:47.146Z,16.64
2022-12-05T22:46:15.994Z,16.62
2022-12-05T22:48:43.792Z,16.58
2022-12-05T22:51:10.873Z,16.56
2022-12-05T22:53:41.800Z,16.52
2022-12-05T22:56:09.957Z,16.41
2022-12-05T22:58:37.147Z,16.45
2022-12-05T23:01:14.363Z,16.41
2022-12-05T23:03:42.356Z,16.37
2022-12-05T23:06:11.914Z,16.32
2022-12-05T23:08:39.748Z,16.30
2022-12-05T23:11:07.294Z,16.33
2022-12-05T23:13:35.067Z,16.34
2022-12-05T23:16:08.070Z,16.29
2022-12-05T23:18:47.069Z,16.23
2022-12-05T23:21:28.856Z,16.20
2022-12-05T23:23:57.128Z,16.21
2022-12-05T23:26:25.469Z,16.22
2022-12-05T23:28:52.937Z,16.19
2022-12-05T23:31:20.332Z,16.17
2022-12-05T23:33:51.051Z,16.16
2022-12-05T23:36:19.338Z,16.21
2022-12-05T23:38:46.787Z,16.16
2022-12-05T23:41:14.970Z,16.15
2022-12-05T23:43:42.554Z,16.09
2022-12-05T23:46:10.923Z,16.02
2022-12-05T23:48:38.026Z,16.05
2022-12-05T23:51:06.682Z,15.98
2022-12-05T23:53:34.538Z,15.98
2022-12-05T23:56:06.322Z,16.08
2022-12-05T23:58:33.953Z,15.96
